Time;durP1;ratioP1;P1;durP2;ratioP2;P2;SDS_P1;SDS_P2;PMS_P1;PMS_P2;Temp;Humidity;BMP_temperature;BMP_pressure;BME280_temperature;BME280_humidity;BME280_pressure;Samples;Min_cycle;Max_cycle;Signal;HPM_P1;HPM_P2
2022/03/01 00:00:10;;;;;;;9.90;8.90;;;3.70;99.30;;;;;;5058867;28;20223;-75
2022/03/01 00:02:37;;;;;;;7.82;7.10;;;3.70;99.90;;;;;;5061399;28;20201;-76
2022/03/01 00:05:05;;;;;;;9.05;8.15;;;3.60;99.50;;;;;;5058297;28;20226;-75
2022/03/01 00:07:32;;;;;;;8.65;7.82;;;3.60;99.50;;;;;;5057698;28;20198;-75
2022/03/01 00:09:59;;;;;;;7.90;7.20;;;3.60;99.50;;;;;;5063728;28;20229;-75
2022/03/01 00:12:26;;;;;;;8.15;7.45;;;3.60;99.60;;;;;;5072162;28;20206;-76
2022/03/01 00:14:55;;;;;;;8.60;7.80;;;3.50;99.50;;;;;;5082012;28;20217;-75
2022/03/01 00:17:23;;;;;;;8.85;7.82;;;3.50;99.60;;;;;;5084602;28;20204;-76
2022/03/01 00:19:50;;;;;;;8.73;7.93;;;3.50;99.60;;;;;;5071825;28;20230;-75
2022/03/01 00:22:17;;;;;;;7.40;6.70;;;3.50;99.50;;;;;;5064313;28;20206;-74
2022/03/01 00:24:44;;;;;;;7.28;6.47;;;3.50;99.40;;;;;;5064153;28;20237;-75
2022/03/01 00:27:11;;;;;;;8.25;7.50;;;3.60;99.30;;;;;;5066578;28;20664;-74
2022/03/01 00:29:38;;;;;;;6.50;5.93;;;3.60;99.40;;;;;;5065649;28;20610;-74
2022/03/01 00:32:07;;;;;;;7.78;7.13;;;3.60;99.40;;;;;;5064740;28;20259;-75
2022/03/01 00:34:34;;;;;;;8.93;7.57;;;3.60;99.30;;;;;;5062569;28;20230;-74
2022/03/01 00:37:01;;;;;;;7.97;7.18;;;3.50;99.50;;;;;;5061997;28;20198;-77
2022/03/01 00:39:28;;;;;;;7.43;6.72;;;3.40;99.60;;;;;;5061843;28;20299;-75
2022/03/01 00:41:55;;;;;;;9.52;8.18;;;3.50;99.70;;;;;;5061610;28;20716;-75
2022/03/01 00:44:22;;;;;;;9.07;7.10;;;3.40;99.50;;;;;;5062932;28;20222;-76
2022/03/01 00:46:49;;;;;;;8.70;7.70;;;3.40;99.50;;;;;;5056507;28;20221;-75
2022/03/01 00:49:18;;;;;;;7.50;6.75;;;3.20;99.60;;;;;;5069043;28;20215;-78
2022/03/01 00:51:45;;;;;;;8.95;8.05;;;3.20;99.70;;;;;;5081437;28;20210;-74
2022/03/01 00:54:12;;;;;;;7.95;7.22;;;3.20;99.80;;;;;;5079238;28;20238;-75
2022/03/01 00:56:39;;;;;;;8.23;7.43;;;3.20;99.90;;;;;;5079722;28;20198;-78
2022/03/01 00:59:07;;;;;;;9.55;8.55;;;3.20;99.90;;;;;;5083245;28;20217;-75
2022/03/01 01:01:35;;;;;;;10.32;9.32;;;3.20;99.90;;;;;;5083536;28;20491;-76
2022/03/01 01:04:02;;;;;;;11.65;10.45;;;3.20;99.90;;;;;;5081945;28;20232;-76
2022/03/01 01:06:30;;;;;;;9.00;8.10;;;3.20;99.90;;;;;;5079560;28;20205;-76
2022/03/01 01:08:57;;;;;;;12.77;11.35;;;3.20;99.90;;;;;;5081450;28;20221;-76
2022/03/01 01:11:25;;;;;;;11.05;9.98;;;3.20;99.90;;;;;;5083271;28;20201;-76
2022/03/01 01:13:52;;;;;;;9.10;8.20;;;3.10;99.90;;;;;;5084926;28;20241;-76
2022/03/01 01:16:19;;;;;;;8.73;7.82;;;3.10;99.90;;;;;;5079770;28;20243;-75
2022/03/01 01:18:46;;;;;;;8.10;7.30;;;3.10;99.90;;;;;;5082505;28;20236;-74
2022/03/01 01:21:14;;;;;;;10.35;8.68;;;3.10;99.90;;;;;;5079818;28;20283;-76
2022/03/01 01:23:42;;;;;;;11.05;8.10;;;3.00;99.80;;;;;;5079205;28;20226;-77
2022/03/01 01:26:10;;;;;;;10.07;9.05;;;3.00;99.90;;;;;;5080506;28;20226;-75
2022/03/01 01:28:37;;;;;;;9.15;8.07;;;2.90;99.90;;;;;;5077131;28;20727;-77
2022/03/01 01:31:05;;;;;;;8.48;7.70;;;2.90;99.90;;;;;;5077510;28;20263;-76
2022/03/01 01:33:32;;;;;;;10.63;8.10;;;2.80;99.90;;;;;;5081534;28;20271;-75
2022/03/01 01:35:59;;;;;;;8.25;7.45;;;2.80;99.90;;;;;;5081991;28;20198;-76
2022/03/01 01:38:26;;;;;;;8.63;7.78;;;2.80;99.90;;;;;;5080659;28;20224;-77
2022/03/01 01:40:54;;;;;;;8.55;7.75;;;2.80;99.90;;;;;;5082949;28;20198;-76
2022/03/01 01:43:22;;;;;;;7.88;7.13;;;2.90;99.90;;;;;;5080418;28;20194;-76
2022/03/01 01:45:49;;;;;;;11.32;8.18;;;2.90;99.90;;;;;;5085996;22;20223;-81
2022/03/01 01:48:16;;;;;;;8.05;7.25;;;2.90;99.90;;;;;;5049395;28;20195;-80
2022/03/01 01:50:43;;;;;;;7.45;6.85;;;2.80;99.90;;;;;;5051365;28;20280;-80
2022/03/01 01:53:11;;;;;;;7.57;6.90;;;2.80;99.90;;;;;;5053146;28;20281;-80
2022/03/01 01:55:38;;;;;;;7.65;6.97;;;2.90;99.90;;;;;;5073822;28;20222;-80
2022/03/01 01:58:06;;;;;;;6.78;6.10;;;2.90;99.90;;;;;;5076721;28;20201;-82
2022/03/01 02:00:33;;;;;;;6.95;6.35;;;2.90;99.90;;;;;;5051645;28;20304;-80
2022/03/01 02:03:01;;;;;;;7.32;6.65;;;3.00;99.90;;;;;;5050387;28;20211;-81
2022/03/01 02:05:28;;;;;;;7.28;6.57;;;3.00;99.90;;;;;;5052694;28;20696;-81
2022/03/01 02:07:56;;;;;;;7.03;6.32;;;3.00;99.90;;;;;;5055100;28;20252;-81
2022/03/01 02:10:23;;;;;;;7.68;7.07;;;2.90;99.90;;;;;;5055582;28;20226;-80
2022/03/01 02:12:50;;;;;;;7.32;6.57;;;2.90;99.90;;;;;;5052858;28;20203;-81
2022/03/01 02:15:19;;;;;;;9.35;7.63;;;2.80;99.90;;;;;;5052341;28;20226;-82
2022/03/01 02:17:47;;;;;;;7.70;7.03;;;2.80;99.90;;;;;;5055658;28;20201;-83
2022/03/01 02:20:17;;;;;;;8.25;7.45;;;2.80;99.90;;;;;;5051091;28;21018;-83
2022/03/01 02:22:45;;;;;;;8.98;8.00;;;2.70;99.90;;;;;;5051133;28;20211;-84
2022/03/01 02:25:12;;;;;;;8.82;7.95;;;2.70;99.90;;;;;;5054959;28;20744;-83
2022/03/01 02:27:40;;;;;;;7.70;7.05;;;2.60;99.90;;;;;;5049645;28;20282;-84
2022/03/01 02:30:09;;;;;;;8.55;7.68;;;2.60;99.90;;;;;;5051347;28;20218;-80
2022/03/01 02:32:37;;;;;;;7.72;7.03;;;2.60;99.90;;;;;;5048378;28;20231;-80
2022/03/01 02:35:05;;;;;;;7.72;7.00;;;2.60;99.90;;;;;;5063616;28;20284;-81
2022/03/01 02:37:35;;;;;;;7.80;7.05;;;2.60;99.90;;;;;;5071059;28;20279;-82
2022/03/01 02:40:02;;;;;;;7.75;7.07;;;2.60;99.90;;;;;;5072210;28;20230;-83
2022/03/01 02:42:30;;;;;;;8.00;7.20;;;2.60;99.90;;;;;;5072016;28;20198;-82
2022/03/01 02:44:58;;;;;;;10.60;9.48;;;2.60;99.90;;;;;;5058150;28;20221;-80
2022/03/01 02:47:26;;;;;;;7.70;7.00;;;2.60;99.90;;;;;;5051086;28;20285;-82
2022/03/01 02:49:53;;;;;;;8.48;7.65;;;2.60;99.90;;;;;;5048608;28;20222;-81
2022/03/01 02:52:20;;;;;;;7.63;6.70;;;2.50;99.90;;;;;;5052504;28;20241;-82
2022/03/01 02:54:49;;;;;;;6.78;6.18;;;2.50;99.90;;;;;;5049748;28;20218;-81
2022/03/01 02:57:16;;;;;;;7.22;6.63;;;2.50;99.90;;;;;;5046969;28;20664;-83
2022/03/01 02:59:45;;;;;;;7.53;6.93;;;2.60;99.90;;;;;;5052969;28;20360;-82
2022/03/01 03:02:12;;;;;;;6.88;5.93;;;2.60;99.90;;;;;;5052535;28;20199;-83
2022/03/01 03:04:39;;;;;;;6.95;6.25;;;2.60;99.90;;;;;;5048076;28;20222;-82
2022/03/01 03:07:06;;;;;;;7.10;6.45;;;2.60;99.90;;;;;;5053443;28;20294;-83
2022/03/01 03:09:34;;;;;;;7.50;6.90;;;2.60;99.90;;;;;;5062965;28;20218;-83
2022/03/01 03:12:03;;;;;;;7.28;6.68;;;2.60;99.90;;;;;;5075360;28;20202;-82
2022/03/01 03:14:30;;;;;;;7.15;6.43;;;2.60;99.90;;;;;;5063984;28;20234;-82
2022/03/01 03:16:58;;;;;;;8.15;7.38;;;2.60;99.90;;;;;;5046814;28;20218;-84
2022/03/01 03:19:26;;;;;;;8.27;7.43;;;2.60;99.90;;;;;;5048510;28;20235;-82
2022/03/01 03:21:53;;;;;;;11.00;8.52;;;2.60;99.90;;;;;;5053947;28;20199;-83
2022/03/01 03:24:20;;;;;;;7.70;7.00;;;2.60;99.90;;;;;;5053417;28;20229;-82
2022/03/01 03:26:47;;;;;;;7.72;6.95;;;2.50;99.90;;;;;;5053880;28;20405;-82
2022/03/01 03:29:18;;;;;;;9.98;7.45;;;2.50;99.90;;;;;;5055037;28;20222;-82
2022/03/01 03:31:46;;;;;;;7.28;6.57;;;2.40;99.90;;;;;;5053760;28;20318;-83
2022/03/01 03:34:13;;;;;;;7.95;7.25;;;2.40;99.90;;;;;;5052853;28;20249;-84
2022/03/01 03:36:42;;;;;;;7.13;6.53;;;2.40;99.90;;;;;;5050886;28;20225;-82
2022/03/01 03:39:11;;;;;;;8.00;7.28;;;2.30;99.90;;;;;;5052779;28;20237;-84
2022/03/01 03:41:39;;;;;;;7.38;6.68;;;2.30;99.90;;;;;;5054254;28;20199;-82
2022/03/01 03:44:06;;;;;;;7.32;6.63;;;2.30;99.90;;;;;;5051056;28;20323;-83
2022/03/01 03:46:35;;;;;;;7.63;6.93;;;2.30;99.90;;;;;;5046031;28;20681;-82
2022/03/01 03:49:03;;;;;;;9.18;7.38;;;2.20;99.90;;;;;;5048597;28;20195;-83
2022/03/01 03:51:30;;;;;;;8.82;8.02;;;2.20;99.90;;;;;;5052145;28;20240;-83
2022/03/01 03:53:57;;;;;;;7.85;6.43;;;2.20;99.90;;;;;;5049720;28;20856;-82
2022/03/01 03:56:24;;;;;;;8.18;7.38;;;2.10;99.90;;;;;;5055299;28;20199;-84
2022/03/01 03:58:52;;;;;;;7.90;7.18;;;2.10;99.90;;;;;;5051791;28;20203;-83
2022/03/01 04:01:20;;;;;;;10.38;7.85;;;2.00;99.90;;;;;;5054759;28;20270;-83
2022/03/01 04:03:48;;;;;;;6.47;5.88;;;2.00;99.90;;;;;;5054569;28;20229;-85
2022/03/01 04:06:15;;;;;;;7.63;6.93;;;1.90;99.90;;;;;;5051949;28;20229;-83
2022/03/01 04:08:42;;;;;;;7.65;6.90;;;1.90;99.90;;;;;;5052853;28;20214;-83
2022/03/01 04:11:09;;;;;;;7.20;6.50;;;1.90;99.90;;;;;;5050087;28;20212;-82
2022/03/01 04:13:36;;;;;;;7.30;6.60;;;1.90;99.90;;;;;;5049963;28;20547;-84
2022/03/01 04:16:04;;;;;;;7.68;6.97;;;1.90;99.90;;;;;;5048189;28;20264;-84
2022/03/01 04:18:31;;;;;;;7.80;7.10;;;1.90;99.90;;;;;;5052535;28;20199;-82
2022/03/01 04:21:00;;;;;;;7.40;6.72;;;1.90;99.90;;;;;;5047366;28;20223;-81
2022/03/01 04:23:27;;;;;;;7.70;7.10;;;1.90;99.90;;;;;;5050304;28;20227;-82
2022/03/01 04:25:54;;;;;;;7.72;7.03;;;1.90;99.90;;;;;;5051737;28;20228;-82
2022/03/01 04:28:21;;;;;;;7.55;6.72;;;1.80;99.90;;;;;;5053106;28;20195;-83
2022/03/01 04:30:49;;;;;;;8.52;7.72;;;1.90;99.90;;;;;;5050789;28;20218;-83
2022/03/01 04:33:16;;;;;;;7.57;6.88;;;1.90;99.90;;;;;;5048919;28;20234;-82
2022/03/01 04:35:43;;;;;;;7.63;6.93;;;1.90;99.90;;;;;;5051503;28;20226;-82
2022/03/01 04:38:11;;;;;;;8.55;7.75;;;1.90;99.90;;;;;;5052911;28;20195;-84
2022/03/01 04:40:39;;;;;;;8.10;6.85;;;1.80;99.90;;;;;;5052845;28;20223;-84
2022/03/01 04:43:06;;;;;;;7.13;6.53;;;1.80;99.90;;;;;;5053854;28;20203;-84
2022/03/01 04:45:33;;;;;;;8.10;7.30;;;1.80;99.90;;;;;;5052554;28;20218;-83
2022/03/01 04:48:00;;;;;;;7.55;6.95;;;1.80;99.90;;;;;;5045041;28;20573;-83
2022/03/01 04:50:28;;;;;;;8.27;7.47;;;1.80;99.90;;;;;;5050748;28;20815;-84
2022/03/01 04:52:55;;;;;;;8.07;7.28;;;1.80;99.90;;;;;;5050550;28;20472;-82
2022/03/01 04:55:24;;;;;;;7.32;6.68;;;1.70;99.90;;;;;;5050871;28;20592;-85
2022/03/01 04:57:51;;;;;;;7.43;6.72;;;1.70;99.90;;;;;;5054158;28;20202;-83
2022/03/01 05:00:18;;;;;;;7.93;7.07;;;1.70;99.90;;;;;;5050658;28;20284;-83
2022/03/01 05:02:47;;;;;;;6.78;6.07;;;1.70;99.90;;;;;;5052943;28;20207;-84
2022/03/01 05:05:15;;;;;;;8.35;7.65;;;1.70;99.90;;;;;;5052702;28;20250;-85
2022/03/01 05:07:44;;;;;;;8.30;7.50;;;1.60;99.90;;;;;;5052842;28;20244;-84
2022/03/01 05:10:12;;;;;;;7.75;7.07;;;1.50;99.90;;;;;;5057362;28;20211;-84
2022/03/01 05:12:45;;;;;;;8.15;7.45;;;1.50;99.90;;;;;;5057597;28;20199;-85
2022/03/01 05:15:12;;;;;;;8.35;7.55;;;1.50;99.90;;;;;;5053948;28;20234;-84
2022/03/01 05:17:40;;;;;;;7.60;6.47;;;1.40;99.90;;;;;;5051781;28;20669;-84
2022/03/01 05:20:08;;;;;;;8.55;7.85;;;1.40;99.90;;;;;;5054154;28;20238;-84
2022/03/01 05:22:37;;;;;;;8.82;8.02;;;1.40;99.90;;;;;;5054148;28;20284;-84
2022/03/01 05:25:05;;;;;;;9.25;8.35;;;1.40;99.90;;;;;;5053443;28;20517;-85
2022/03/01 05:27:32;;;;;;;8.90;8.02;;;1.30;99.90;;;;;;5048713;28;20248;-84
2022/03/01 05:30:00;;;;;;;9.18;8.27;;;1.30;99.90;;;;;;5052730;28;20223;-84
2022/03/01 05:32:28;;;;;;;8.80;8.00;;;1.30;99.90;;;;;;5051997;28;20272;-83
2022/03/01 05:34:55;;;;;;;9.32;8.32;;;1.20;99.90;;;;;;5049430;28;20222;-85
2022/03/01 05:37:22;;;;;;;9.20;8.32;;;1.20;99.90;;;;;;5053354;28;20195;-83
2022/03/01 05:39:49;;;;;;;9.70;8.80;;;1.20;99.90;;;;;;5052372;28;20712;-84
2022/03/01 05:42:18;;;;;;;9.93;8.93;;;1.30;99.90;;;;;;5054005;28;20264;-83
2022/03/01 05:44:45;;;;;;;8.40;7.60;;;1.30;99.90;;;;;;5048496;28;20226;-83
2022/03/01 05:47:14;;;;;;;7.93;7.30;;;1.30;99.90;;;;;;5046753;28;20214;-83
2022/03/01 05:49:42;;;;;;;8.50;7.70;;;1.30;99.90;;;;;;5056628;28;20222;-84
2022/03/01 05:52:09;;;;;;;8.32;7.53;;;1.40;99.90;;;;;;5053404;28;20195;-85
2022/03/01 05:54:36;;;;;;;8.13;7.43;;;1.40;99.90;;;;;;5056002;28;20238;-82
2022/03/01 05:57:04;;;;;;;7.15;6.53;;;1.40;99.90;;;;;;5051417;28;20265;-81
2022/03/01 05:59:31;;;;;;;7.13;6.53;;;1.40;99.90;;;;;;5047686;28;20203;-81
2022/03/01 06:01:58;;;;;;;7.47;6.78;;;1.40;99.90;;;;;;5048724;28;20215;-83
2022/03/01 06:04:26;;;;;;;6.90;6.30;;;1.50;99.90;;;;;;5051776;28;20203;-81
2022/03/01 06:06:53;;;;;;;7.53;6.35;;;1.50;99.90;;;;;;5055055;28;20199;-82
2022/03/01 06:09:20;;;;;;;7.47;6.88;;;1.50;99.90;;;;;;5056362;28;20609;-82
2022/03/01 06:11:47;;;;;;;8.18;7.47;;;1.50;99.90;;;;;;5056071;28;20199;-83
2022/03/01 06:14:16;;;;;;;7.15;6.45;;;1.60;99.90;;;;;;5057953;28;20257;-81
2022/03/01 06:16:44;;;;;;;6.93;6.30;;;1.60;99.90;;;;;;5055617;28;20704;-81
2022/03/01 06:19:12;;;;;;;7.95;7.25;;;1.60;99.90;;;;;;5055009;28;20195;-82
2022/03/01 06:21:40;;;;;;;8.40;6.72;;;1.60;99.90;;;;;;5054557;28;20215;-82
2022/03/01 06:24:07;;;;;;;9.70;7.70;;;1.60;99.90;;;;;;5053565;28;20252;-83
2022/03/01 06:26:35;;;;;;;8.18;7.40;;;1.60;99.90;;;;;;5054549;28;20731;-82
2022/03/01 06:29:02;;;;;;;7.70;6.88;;;1.60;99.90;;;;;;5046763;28;20195;-81
2022/03/01 06:31:29;;;;;;;8.25;7.45;;;1.70;99.90;;;;;;5052006;28;20219;-82
2022/03/01 06:33:57;;;;;;;7.60;6.80;;;1.70;99.90;;;;;;5050780;28;20210;-82
2022/03/01 06:36:24;;;;;;;8.07;7.38;;;1.70;99.90;;;;;;5054225;28;20241;-82
2022/03/01 06:38:53;;;;;;;7.70;7.00;;;1.80;99.90;;;;;;5054968;28;20604;-83
2022/03/01 06:41:21;;;;;;;8.77;7.90;;;1.80;99.90;;;;;;5055596;28;20222;-82
2022/03/01 06:43:48;;;;;;;8.10;7.28;;;1.80;99.90;;;;;;5057582;28;20229;-83
2022/03/01 06:46:15;;;;;;;8.07;7.28;;;1.70;99.90;;;;;;5053669;28;20242;-83
2022/03/01 06:48:43;;;;;;;7.57;6.95;;;1.70;99.90;;;;;;5054419;28;20195;-81
2022/03/01 06:51:10;;;;;;;8.05;7.32;;;1.70;99.90;;;;;;5053389;28;20215;-81
2022/03/01 06:53:37;;;;;;;8.85;8.02;;;1.70;99.90;;;;;;5054212;28;20261;-82
2022/03/01 06:56:06;;;;;;;7.68;6.97;;;1.70;99.90;;;;;;5054926;28;20226;-81
2022/03/01 06:58:34;;;;;;;8.00;7.30;;;1.70;99.90;;;;;;5054238;28;20206;-81
2022/03/01 07:01:02;;;;;;;7.85;7.07;;;1.80;99.90;;;;;;5053325;28;20223;-81
2022/03/01 07:03:29;;;;;;;8.13;7.32;;;1.80;99.90;;;;;;5055455;28;20226;-81
2022/03/01 07:05:56;;;;;;;8.65;7.72;;;1.90;99.90;;;;;;5053291;28;20223;-83
2022/03/01 07:08:25;;;;;;;8.95;7.25;;;1.90;99.90;;;;;;5056144;28;20249;-82
2022/03/01 07:10:53;;;;;;;6.82;6.22;;;1.90;99.90;;;;;;5053100;28;20287;-82
2022/03/01 07:13:21;;;;;;;8.52;7.72;;;2.00;99.90;;;;;;5053471;28;20199;-82
2022/03/01 07:15:49;;;;;;;8.90;8.00;;;2.50;99.90;;;;;;5053601;28;20237;-84
2022/03/01 07:18:16;;;;;;;8.70;7.90;;;3.40;99.90;;;;;;5048111;28;20603;-82
2022/03/01 07:20:44;;;;;;;8.95;8.05;;;4.40;99.90;;;;;;5055873;28;20309;-84
2022/03/01 07:23:11;;;;;;;8.80;7.95;;;5.30;99.90;;;;;;5059381;28;20218;-84
2022/03/01 07:25:39;;;;;;;8.40;7.60;;;6.10;99.00;;;;;;5056603;28;20225;-84
2022/03/01 07:28:06;;;;;;;9.68;8.15;;;6.60;96.70;;;;;;5053869;28;20203;-82
2022/03/01 07:30:35;;;;;;;8.35;7.55;;;7.10;95.20;;;;;;5057883;28;20291;-84
2022/03/01 07:33:02;;;;;;;8.35;7.55;;;7.60;94.50;;;;;;5057053;28;20313;-82
2022/03/01 07:35:30;;;;;;;9.93;8.57;;;7.90;94.20;;;;;;5055106;28;20241;-85
2022/03/01 07:37:57;;;;;;;10.73;8.70;;;7.90;95.20;;;;;;5057138;28;20222;-84
2022/03/01 07:40:26;;;;;;;9.38;8.45;;;7.90;94.00;;;;;;5053793;28;20587;-84
2022/03/01 07:42:54;;;;;;;9.25;8.35;;;8.00;94.00;;;;;;5055739;28;20222;-84
2022/03/01 07:45:22;;;;;;;9.15;7.57;;;8.30;93.40;;;;;;5052556;28;20219;-84
2022/03/01 07:47:50;;;;;;;9.07;7.82;;;8.40;93.10;;;;;;5053455;28;20202;-83
2022/03/01 07:50:18;;;;;;;8.35;7.55;;;8.60;92.60;;;;;;5050271;28;20230;-82
2022/03/01 07:52:46;;;;;;;9.00;8.13;;;8.80;92.40;;;;;;5056027;28;20202;-81
2022/03/01 07:55:14;;;;;;;9.43;8.02;;;9.00;91.30;;;;;;5053860;28;20249;-83
2022/03/01 07:57:41;;;;;;;8.45;7.72;;;9.20;91.70;;;;;;5058485;28;20237;-82
2022/03/01 08:00:09;;;;;;;8.75;7.85;;;9.20;91.00;;;;;;5054781;28;20265;-83
2022/03/01 08:02:37;;;;;;;8.38;7.60;;;9.30;90.80;;;;;;5057967;28;20245;-82
2022/03/01 08:05:06;;;;;;;9.02;7.60;;;9.30;90.70;;;;;;5052760;28;20218;-82
2022/03/01 08:07:34;;;;;;;8.23;7.03;;;9.50;90.20;;;;;;5056053;28;20207;-82
2022/03/01 08:10:01;;;;;;;7.28;6.57;;;9.70;90.20;;;;;;5052818;28;20449;-82
2022/03/01 08:12:28;;;;;;;8.23;6.65;;;9.80;87.60;;;;;;5061764;28;20199;-84
2022/03/01 08:14:56;;;;;;;6.97;6.28;;;9.80;87.90;;;;;;5059650;28;20202;-83
2022/03/01 08:17:23;;;;;;;8.27;7.30;;;9.90;88.00;;;;;;5058912;28;20191;-82
2022/03/01 08:19:50;;;;;;;8.23;7.32;;;9.70;88.00;;;;;;5052399;28;20293;-83
2022/03/01 08:22:19;;;;;;;10.75;7.57;;;9.30;85.70;;;;;;5054941;28;20230;-82
2022/03/01 08:24:46;;;;;;;9.40;7.75;;;8.70;85.20;;;;;;5057793;28;20199;-82
2022/03/01 08:27:13;;;;;;;9.40;7.43;;;8.30;87.60;;;;;;5055794;28;20230;-82
2022/03/01 08:29:40;;;;;;;9.43;8.00;;;8.10;89.30;;;;;;5052101;28;20219;-83
2022/03/01 08:32:07;;;;;;;9.50;7.97;;;8.00;90.30;;;;;;5078184;28;20221;-84
2022/03/01 08:34:35;;;;;;;10.52;8.98;;;8.00;91.50;;;;;;5078993;28;20206;-83
2022/03/01 08:37:02;;;;;;;8.90;8.00;;;8.30;92.40;;;;;;5076572;28;20229;-83
2022/03/01 08:39:30;;;;;;;9.27;8.38;;;8.40;92.30;;;;;;5077851;28;20202;-82
2022/03/01 08:41:57;;;;;;;11.23;7.88;;;8.90;91.80;;;;;;5078341;28;21098;-81
2022/03/01 08:44:24;;;;;;;11.25;8.10;;;9.20;92.20;;;;;;5078352;28;20229;-83
2022/03/01 08:46:51;;;;;;;9.15;8.25;;;9.60;91.70;;;;;;5079622;28;20221;-81
2022/03/01 08:49:18;;;;;;;13.70;8.90;;;9.90;91.40;;;;;;5081881;28;20202;-82
2022/03/01 08:51:45;;;;;;;8.77;7.88;;;10.50;90.70;;;;;;5080741;28;20225;-85
2022/03/01 08:54:12;;;;;;;9.82;8.20;;;10.80;90.40;;;;;;5079798;28;20203;-84
2022/03/01 08:56:41;;;;;;;9.95;8.73;;;10.90;90.00;;;;;;5080938;28;20218;-83
2022/03/01 08:59:09;;;;;;;9.77;8.77;;;11.20;89.10;;;;;;5077158;28;20256;-83
2022/03/01 09:01:37;;;;;;;9.43;8.43;;;11.40;86.50;;;;;;5080121;28;20225;-84
2022/03/01 09:04:04;;;;;;;10.27;8.38;;;11.00;88.10;;;;;;5083778;28;20202;-83
2022/03/01 09:06:31;;;;;;;8.85;7.90;;;10.90;86.70;;;;;;5083061;28;20234;-83
2022/03/01 09:08:59;;;;;;;8.43;7.50;;;11.20;87.50;;;;;;5084868;28;20217;-82
2022/03/01 09:11:26;;;;;;;7.93;6.95;;;11.20;84.00;;;;;;5081246;28;20214;-84
2022/03/01 09:13:56;;;;;;;7.78;7.07;;;11.10;83.10;;;;;;5088377;28;20218;-86
2022/03/01 09:16:35;;;;;;;8.48;7.63;;;11.10;83.40;;;;;;5084344;28;20225;-86
2022/03/01 09:19:26;;;;;;;8.02;7.18;;;11.20;81.80;;;;;;5093587;28;20205;-87
2022/03/01 09:22:07;;;;;;;7.10;6.40;;;11.00;79.70;;;;;;5081295;28;20290;-87
2022/03/01 09:25:11;;;;;;;8.10;7.30;;;11.40;81.60;;;;;;5086885;28;20214;-87
2022/03/01 09:27:40;;;;;;;8.65;6.95;;;11.30;80.70;;;;;;5108708;22;20525;-78
2022/03/01 09:30:10;;;;;;;8.90;7.00;;;11.50;82.10;;;;;;5039494;28;20203;-76
2022/03/01 09:32:37;;;;;;;7.53;6.72;;;11.50;80.90;;;;;;5058640;28;20276;-76
2022/03/01 09:35:05;;;;;;;7.40;6.57;;;11.40;81.50;;;;;;5063042;28;20616;-77
2022/03/01 09:37:32;;;;;;;9.73;6.65;;;11.30;79.40;;;;;;5055867;28;20694;-77
2022/03/01 09:39:59;;;;;;;8.00;7.13;;;11.50;79.60;;;;;;5070882;28;20664;-80
2022/03/01 09:42:27;;;;;;;8.45;6.60;;;11.60;78.40;;;;;;5065348;28;20325;-77
2022/03/01 09:44:55;;;;;;;6.60;6.00;;;11.60;78.30;;;;;;5067094;28;20215;-80
2022/03/01 09:47:23;;;;;;;6.53;5.93;;;11.60;77.70;;;;;;5060875;28;20222;-79
2022/03/01 09:49:51;;;;;;;7.72;6.40;;;11.70;77.80;;;;;;5064155;28;20692;-77
2022/03/01 09:52:19;;;;;;;5.53;5.03;;;11.60;77.80;;;;;;5062401;28;20214;-80
2022/03/01 09:54:49;;;;;;;6.80;6.07;;;11.90;78.20;;;;;;5062190;28;20191;-77
2022/03/01 09:57:17;;;;;;;7.13;6.45;;;11.90;76.20;;;;;;5065234;28;20222;-80
2022/03/01 09:59:44;;;;;;;6.85;6.22;;;11.90;75.50;;;;;;5056877;28;20264;-80
2022/03/01 10:02:11;;;;;;;7.85;6.65;;;12.00;72.90;;;;;;5061930;28;20218;-81
2022/03/01 10:04:51;;;;;;;8.30;6.18;;;11.80;74.20;;;;;;5060724;28;20194;-76
2022/03/01 10:07:23;;;;;;;7.90;7.13;;;11.90;71.80;;;;;;5060456;28;20834;-78
2022/03/01 10:09:50;;;;;;;7.03;6.32;;;12.00;73.80;;;;;;5060995;28;20325;-78
2022/03/01 10:12:24;;;;;;;8.05;6.22;;;12.10;72.80;;;;;;5064120;28;20280;-79
2022/03/01 10:14:59;;;;;;;6.82;6.20;;;12.20;74.10;;;;;;5063345;28;20311;-78
2022/03/01 10:17:34;;;;;;;7.57;6.55;;;12.20;73.00;;;;;;5064670;28;20233;-79
2022/03/01 10:20:05;;;;;;;7.22;6.53;;;12.20;71.10;;;;;;5061971;28;20251;-76
2022/03/01 10:22:32;;;;;;;6.82;5.63;;;12.10;73.40;;;;;;5061837;28;20222;-77
2022/03/01 10:25:05;;;;;;;7.75;6.65;;;12.10;72.10;;;;;;5062270;28;20197;-79
2022/03/01 10:27:33;;;;;;;7.88;6.97;;;11.90;73.00;;;;;;5062916;28;20244;-81
2022/03/01 10:30:01;;;;;;;7.72;6.93;;;12.10;72.80;;;;;;5062584;28;20198;-79
2022/03/01 10:32:28;;;;;;;7.25;6.55;;;12.10;73.50;;;;;;5058336;28;20229;-77
2022/03/01 10:35:00;;;;;;;7.95;6.97;;;12.30;73.30;;;;;;5061614;28;20696;-79
2022/03/01 10:37:29;;;;;;;7.60;6.90;;;12.50;71.30;;;;;;5061861;28;20241;-81
2022/03/01 10:40:14;;;;;;;8.23;6.72;;;12.10;70.30;;;;;;5062746;28;20645;-81
2022/03/01 10:42:42;;;;;;;7.60;6.90;;;11.70;70.40;;;;;;5070879;28;20218;-81
2022/03/01 10:45:10;;;;;;;7.97;6.78;;;11.40;71.90;;;;;;5063105;28;20229;-78
2022/03/01 10:47:38;;;;;;;8.05;7.30;;;11.60;72.70;;;;;;5058086;28;20226;-77
2022/03/01 10:50:09;;;;;;;8.90;7.43;;;12.10;72.50;;;;;;5057295;28;20206;-79
2022/03/01 10:52:39;;;;;;;8.88;7.30;;;12.20;72.10;;;;;;5061424;28;20229;-85
2022/03/01 10:55:08;;;;;;;9.15;7.38;;;12.30;71.80;;;;;;5067613;28;20293;-79
2022/03/01 10:57:35;;;;;;;8.95;6.90;;;12.70;73.40;;;;;;5063410;28;20237;-77
2022/03/01 11:00:02;;;;;;;9.43;7.28;;;12.90;73.70;;;;;;5057560;28;20222;-80
2022/03/01 11:02:30;;;;;;;9.20;7.20;;;13.10;73.30;;;;;;5056184;28;20257;-77
2022/03/01 11:04:57;;;;;;;8.15;7.28;;;13.30;71.30;;;;;;5060290;28;20194;-77
2022/03/01 11:07:29;;;;;;;7.20;6.50;;;12.90;69.50;;;;;;5075729;28;20704;-77
2022/03/01 11:09:59;;;;;;;8.20;7.40;;;12.90;73.50;;;;;;5076697;28;20205;-74
2022/03/01 11:12:27;;;;;;;7.80;7.00;;;12.80;71.60;;;;;;5062998;28;20242;-76
2022/03/01 11:15:04;;;;;;;7.63;6.93;;;12.50;71.00;;;;;;5058626;28;20728;-78
2022/03/01 11:17:45;;;;;;;8.38;7.53;;;12.50;71.20;;;;;;5056048;28;20228;-75
2022/03/01 11:20:15;;;;;;;9.50;7.40;;;12.30;72.10;;;;;;5056283;28;20198;-76
2022/03/01 11:22:45;;;;;;;8.38;7.45;;;12.40;71.90;;;;;;5055715;28;20291;-79
2022/03/01 11:25:19;;;;;;;8.38;7.53;;;12.30;70.40;;;;;;5058764;28;20565;-77
2022/03/01 11:27:48;;;;;;;7.70;6.90;;;12.40;71.40;;;;;;5056642;28;20226;-78
2022/03/01 11:30:16;;;;;;;8.90;7.40;;;12.70;73.40;;;;;;5056861;28;20202;-76
2022/03/01 11:32:47;;;;;;;7.57;6.80;;;12.90;71.90;;;;;;5053129;28;20210;-76
2022/03/01 11:35:19;;;;;;;8.52;7.22;;;12.70;70.20;;;;;;5062504;28;20821;-77
2022/03/01 11:37:58;;;;;;;7.55;6.85;;;12.40;71.30;;;;;;5058231;28;20226;-78
2022/03/01 11:40:26;;;;;;;8.52;7.72;;;12.30;72.50;;;;;;5055612;28;20210;-76
2022/03/01 11:42:53;;;;;;;8.90;7.45;;;12.40;71.00;;;;;;5056050;28;20221;-80
2022/03/01 11:45:20;;;;;;;8.27;7.45;;;12.50;71.60;;;;;;5056359;28;20206;-84
2022/03/01 11:47:49;;;;;;;9.70;8.70;;;12.70;70.90;;;;;;5059505;28;20222;-80
2022/03/01 11:50:19;;;;;;;9.00;8.10;;;12.90;69.90;;;;;;5054060;28;20211;-79
2022/03/01 11:52:57;;;;;;;9.70;8.80;;;12.90;69.70;;;;;;5076658;28;20225;-76
2022/03/01 11:55:33;;;;;;;8.70;7.90;;;12.60;70.20;;;;;;5077909;28;20197;-76
2022/03/01 11:58:00;;;;;;;8.40;7.60;;;12.70;71.20;;;;;;5053106;28;20712;-79
2022/03/01 12:00:29;;;;;;;9.65;8.65;;;12.60;70.70;;;;;;5052601;28;20205;-77
2022/03/01 12:03:00;;;;;;;10.15;8.27;;;12.70;70.60;;;;;;5057800;28;20751;-80
2022/03/01 12:05:28;;;;;;;8.85;8.05;;;12.70;69.40;;;;;;5059416;28;20611;-78
2022/03/01 12:07:55;;;;;;;8.70;7.88;;;13.00;70.20;;;;;;5057632;28;20245;-75
2022/03/01 12:10:25;;;;;;;8.57;7.28;;;13.10;68.60;;;;;;5061951;28;20206;-77
2022/03/01 12:12:56;;;;;;;9.05;7.95;;;13.20;68.40;;;;;;5060731;28;20218;-78
2022/03/01 12:15:31;;;;;;;8.32;7.53;;;13.40;68.60;;;;;;5064302;28;20669;-78
2022/03/01 12:17:58;;;;;;;8.57;7.68;;;13.50;68.70;;;;;;5063698;28;20218;-78
2022/03/01 12:20:26;;;;;;;10.13;8.77;;;13.60;68.80;;;;;;5062215;28;20736;-76
2022/03/01 12:22:58;;;;;;;8.30;7.50;;;13.50;70.50;;;;;;5064315;28;20229;-77
2022/03/01 12:25:26;;;;;;;9.35;8.48;;;13.50;68.40;;;;;;5066379;28;20205;-78
2022/03/01 12:27:56;;;;;;;8.70;7.90;;;13.40;67.80;;;;;;5064735;28;20225;-78
2022/03/01 12:30:24;;;;;;;8.40;7.57;;;13.20;68.30;;;;;;5071758;28;22075;-78
2022/03/01 12:32:53;;;;;;;8.43;7.63;;;13.20;68.30;;;;;;5058928;28;20236;-78
2022/03/01 12:35:21;;;;;;;8.35;7.13;;;13.50;68.20;;;;;;5063141;28;20202;-76
2022/03/01 12:37:48;;;;;;;8.35;7.65;;;13.70;66.50;;;;;;5062250;28;20222;-77
2022/03/01 12:40:15;;;;;;;8.45;7.65;;;13.70;65.50;;;;;;5067707;28;20657;-75
2022/03/01 12:42:42;;;;;;;8.90;8.00;;;13.60;66.70;;;;;;5060196;28;20225;-79
2022/03/01 12:45:11;;;;;;;9.02;8.23;;;13.30;66.00;;;;;;5062123;28;20190;-76
2022/03/01 12:47:42;;;;;;;8.65;7.72;;;13.30;67.80;;;;;;5059877;28;20700;-77
2022/03/01 12:50:19;;;;;;;9.75;7.65;;;13.10;65.90;;;;;;5058634;28;20226;-77
2022/03/01 12:52:57;;;;;;;8.90;7.60;;;13.10;68.10;;;;;;5061033;28;20715;-79
2022/03/01 12:55:25;;;;;;;7.55;6.85;;;13.30;68.40;;;;;;5062513;28;20194;-77
2022/03/01 12:57:52;;;;;;;7.93;7.13;;;13.30;68.70;;;;;;5062735;28;20228;-77